Time;durP1;ratioP1;P1;durP2;ratioP2;P2;SDS_P1;SDS_P2;PMS_P1;PMS_P2;Temp;Humidity;BMP_temperature;BMP_pressure;BME280_temperature;BME280_humidity;BME280_pressure;Samples;Min_cycle;Max_cycle;Signal;HPM_P1;HPM_P2
2023/05/11 00:00:31;;;;;;;6.10;5.00;;;;;;;10.41;69.14;100789.84;5053835;28;20208;-68
2023/05/11 00:02:58;;;;;;;5.47;4.70;;;;;;;10.37;69.33;100789.72;5061439;28;20291;-67
2023/05/11 00:05:28;;;;;;;5.73;5.00;;;;;;;10.33;69.71;100794.06;5063999;28;20202;-67
2023/05/11 00:07:54;;;;;;;5.00;4.50;;;;;;;10.29;69.88;100795.78;5064594;28;20567;-68
2023/05/11 00:10:21;;;;;;;5.87;5.27;;;;;;;10.26;69.26;100779.81;5057456;28;20208;-67
2023/05/11 00:12:47;;;;;;;5.93;4.80;;;;;;;10.22;68.46;100792.09;5066591;28;20200;-68
2023/05/11 00:15:13;;;;;;;5.53;5.03;;;;;;;10.18;68.63;100786.69;5058765;28;20200;-68
2023/05/11 00:17:40;;;;;;;5.23;4.70;;;;;;;10.15;69.70;100789.19;5057192;28;20238;-67
2023/05/11 00:20:07;;;;;;;6.97;5.10;;;;;;;10.10;69.55;100790.13;5064928;28;20190;-67
2023/05/11 00:22:35;;;;;;;5.33;4.83;;;;;;;10.07;69.73;100782.84;5070035;28;20242;-67
2023/05/11 00:25:01;;;;;;;8.50;5.40;;;;;;;10.03;69.76;100783.75;5062852;28;20205;-68
2023/05/11 00:27:28;;;;;;;6.37;5.50;;;;;;;10.00;70.31;100787.78;5064979;28;20203;-67
2023/05/11 00:29:54;;;;;;;6.43;5.00;;;;;;;9.98;69.85;100791.84;5050543;28;20212;-67
2023/05/11 00:32:21;;;;;;;5.50;5.00;;;;;;;9.95;70.24;100779.28;5068687;28;20295;-68
2023/05/11 00:34:47;;;;;;;6.40;5.40;;;;;;;9.92;70.70;100791.25;5065560;28;20758;-68
2023/05/11 00:37:15;;;;;;;6.50;5.57;;;;;;;9.89;70.28;100776.03;5068108;28;20214;-68
2023/05/11 00:39:42;;;;;;;6.37;5.23;;;;;;;9.87;70.81;100780.88;5042336;28;20226;-67
2023/05/11 00:42:10;;;;;;;5.53;5.03;;;;;;;9.86;71.47;100781.97;5051351;28;20226;-68
2023/05/11 00:44:37;;;;;;;6.77;4.97;;;;;;;9.85;71.25;100787.56;5043116;28;20212;-68
2023/05/11 00:47:03;;;;;;;8.83;5.80;;;;;;;9.83;71.48;100785.22;5061069;28;20196;-68
2023/05/11 00:49:30;;;;;;;5.40;4.90;;;;;;;9.79;70.91;100791.44;5068224;28;20278;-67
2023/05/11 00:51:57;;;;;;;6.13;5.53;;;;;;;9.76;71.44;100792.84;5040189;28;20222;-68
2023/05/11 00:54:23;;;;;;;8.33;6.03;;;;;;;9.73;71.79;100790.84;5048377;28;20209;-68
2023/05/11 00:56:51;;;;;;;7.27;4.93;;;;;;;9.70;71.98;100785.41;5069610;28;20200;-68
2023/05/11 00:59:18;;;;;;;5.70;5.20;;;;;;;9.69;72.21;100789.16;5054795;28;20554;-67
2023/05/11 01:01:44;;;;;;;5.37;4.87;;;;;;;9.64;72.41;100790.06;5068306;28;20300;-67
2023/05/11 01:04:11;;;;;;;6.20;5.13;;;;;;;9.62;72.81;100791.50;5066520;28;20207;-68
2023/05/11 01:06:52;;;;;;;7.07;5.50;;;;;;;9.59;72.86;100792.13;5051802;28;20612;-68
2023/05/11 01:09:29;;;;;;;6.13;5.57;;;;;;;9.54;73.05;100790.44;5068854;28;20190;-67
2023/05/11 01:12:07;;;;;;;5.97;5.07;;;;;;;9.51;72.68;100787.63;5048628;28;20248;-68
2023/05/11 01:14:39;;;;;;;6.70;5.93;;;;;;;9.48;73.06;100790.91;5048801;28;20381;-68
2023/05/11 01:17:15;;;;;;;5.50;5.00;;;;;;;9.43;72.95;100788.41;5052611;28;20198;-67
2023/05/11 01:19:48;;;;;;;5.97;5.37;;;;;;;9.39;73.23;100790.91;5061331;28;20191;-67
2023/05/11 01:22:45;;;;;;;6.00;5.40;;;;;;;9.36;73.50;100788.88;5044352;28;20211;-68
2023/05/11 01:25:43;;;;;;;8.07;5.83;;;;;;;9.32;73.10;100793.22;5030073;28;20198;-67
2023/05/11 01:29:05;;;;;;;6.17;5.57;;;;;;;9.28;73.44;100788.91;5069327;28;20199;-68
2023/05/11 01:31:44;;;;;;;6.43;5.77;;;;;;;9.25;73.01;100792.13;5060831;28;20309;-67
2023/05/11 01:34:24;;;;;;;7.73;6.33;;;;;;;9.24;73.33;100787.97;5051302;28;20191;-68
2023/05/11 01:36:54;;;;;;;6.70;6.03;;;;;;;9.23;73.51;100789.84;5071794;28;20200;-67
2023/05/11 01:39:38;;;;;;;5.77;5.27;;;;;;;9.24;72.92;100804.56;5044189;28;20199;-67
2023/05/11 01:44:58;;;;;;;6.93;6.23;;;;;;;9.29;72.38;100804.41;5058950;28;20569;-68
2023/05/11 01:47:44;;;;;;;7.63;6.20;;;;;;;9.32;72.14;100795.84;5064690;28;20209;-67
2023/05/11 01:50:21;;;;;;;6.90;6.20;;;;;;;9.34;71.49;100808.72;5037626;28;20191;-67
2023/05/11 01:52:58;;;;;;;7.73;6.20;;;;;;;9.37;71.67;100813.38;5050659;28;20194;-67
2023/05/11 01:55:26;;;;;;;6.67;6.03;;;;;;;9.37;71.15;100808.88;5045274;28;20350;-67
2023/05/11 01:57:55;;;;;;;6.80;6.10;;;;;;;9.37;70.91;100813.38;5064859;28;20191;-68
2023/05/11 02:00:23;;;;;;;6.37;5.77;;;;;;;9.37;71.57;100806.25;5051800;28;20203;-67
2023/05/11 02:02:55;;;;;;;9.10;5.83;;;;;;;9.35;71.18;100823.44;5058459;28;20628;-68
2023/05/11 02:05:23;;;;;;;7.47;6.10;;;;;;;9.33;70.97;100815.88;5065036;28;20207;-67
2023/05/11 02:07:51;;;;;;;7.37;6.27;;;;;;;9.32;71.84;100811.66;5040427;28;20210;-66
2023/05/11 02:10:26;;;;;;;7.43;6.57;;;;;;;9.29;71.56;100814.94;5052825;28;20202;-67
2023/05/11 02:12:54;;;;;;;7.10;6.40;;;;;;;9.27;71.83;100819.72;5067377;28;20733;-67
2023/05/11 02:15:23;;;;;;;6.87;6.17;;;;;;;9.23;71.16;100818.81;5045232;28;20459;-67
2023/05/11 02:17:52;;;;;;;6.83;6.13;;;;;;;9.20;70.96;100824.69;5052515;28;20215;-68
2023/05/11 02:20:20;;;;;;;8.37;6.37;;;;;;;9.19;71.51;100822.38;5060252;28;20214;-67
2023/05/11 02:22:48;;;;;;;7.43;6.17;;;;;;;9.17;71.56;100821.91;5042464;28;20234;-66
2023/05/11 02:25:16;;;;;;;7.20;6.03;;;;;;;9.14;72.06;100833.06;5061982;28;20195;-68
2023/05/11 02:27:42;;;;;;;6.73;5.90;;;;;;;9.14;72.72;100830.41;5051379;28;20298;-68
2023/05/11 02:30:10;;;;;;;8.80;6.70;;;;;;;9.11;71.95;100829.19;5069810;23;20290;-74
2023/05/11 02:32:42;;;;;;;7.90;6.90;;;;;;;9.11;71.49;100828.44;5033004;28;20244;-75
2023/05/11 02:35:15;;;;;;;7.03;6.23;;;;;;;9.12;72.29;100830.72;5039727;28;20538;-75
2023/05/11 02:37:46;;;;;;;7.97;6.47;;;;;;;9.12;71.30;100832.59;5031310;28;20234;-74
2023/05/11 02:40:17;;;;;;;6.67;5.97;;;;;;;9.10;71.89;100827.63;5048517;28;20219;-75
2023/05/11 02:42:48;;;;;;;6.40;5.80;;;;;;;9.10;71.39;100837.38;5036898;28;20223;-75
2023/05/11 02:45:16;;;;;;;7.43;6.73;;;;;;;9.09;71.25;100830.56;5054270;28;20194;-75
2023/05/11 02:47:47;;;;;;;6.03;5.43;;;;;;;9.08;71.84;100832.44;5035941;28;21303;-75
2023/05/11 02:50:20;;;;;;;7.40;6.23;;;;;;;9.08;71.85;100836.94;5035930;28;20230;-75
2023/05/11 02:52:50;;;;;;;7.30;6.57;;;;;;;9.07;72.48;100832.75;5040478;28;20206;-74
2023/05/11 02:55:18;;;;;;;7.47;6.67;;;;;;;9.04;71.84;100828.09;5053685;28;20643;-74
2023/05/11 02:57:45;;;;;;;6.83;5.80;;;;;;;9.03;71.84;100829.19;5052155;28;20735;-75
2023/05/11 03:00:12;;;;;;;6.67;5.97;;;;;;;9.02;72.53;100838.16;5037729;28;20231;-75
2023/05/11 03:02:39;;;;;;;7.50;6.13;;;;;;;8.99;71.73;100826.38;5037428;28;20217;-75
2023/05/11 03:05:06;;;;;;;7.57;6.07;;;;;;;8.99;72.33;100825.59;5054623;28;20280;-75
2023/05/11 03:07:34;;;;;;;7.17;6.47;;;;;;;8.96;72.36;100837.53;5039461;28;20586;-75
2023/05/11 03:10:02;;;;;;;6.80;6.20;;;;;;;8.94;72.21;100833.66;5039926;28;20455;-75
2023/05/11 03:12:34;;;;;;;7.10;6.40;;;;;;;8.90;72.34;100830.88;5042227;28;20207;-75
2023/05/11 03:15:03;;;;;;;7.20;6.50;;;;;;;8.88;72.26;100834.88;5051827;28;20596;-74
2023/05/11 03:17:32;;;;;;;9.30;6.17;;;;;;;8.86;72.97;100835.19;5040576;28;20234;-75
2023/05/11 03:20:02;;;;;;;7.03;6.03;;;;;;;8.85;72.52;100831.00;5035926;28;20264;-75
2023/05/11 03:22:30;;;;;;;6.57;5.87;;;;;;;8.84;71.78;100836.56;5056571;28;20206;-75
2023/05/11 03:24:57;;;;;;;7.10;6.40;;;;;;;8.83;72.10;100845.56;5054738;28;20206;-75
2023/05/11 03:27:26;;;;;;;8.87;7.47;;;;;;;8.81;72.21;100830.06;5039303;28;20227;-75
2023/05/11 03:29:53;;;;;;;7.40;6.53;;;;;;;8.79;72.02;100840.13;5049250;28;20221;-75
2023/05/11 03:32:20;;;;;;;8.17;6.43;;;;;;;8.77;72.42;100838.91;5043796;28;20206;-75
2023/05/11 03:34:46;;;;;;;8.40;6.07;;;;;;;8.75;71.20;100838.44;5033190;28;20208;-75
2023/05/11 03:37:18;;;;;;;7.37;6.67;;;;;;;8.73;71.14;100843.22;5041460;28;20219;-75
2023/05/11 03:39:47;;;;;;;7.37;6.33;;;;;;;8.71;72.79;100834.84;5053539;28;20202;-74
2023/05/11 03:42:15;;;;;;;7.60;6.90;;;;;;;8.69;73.29;100835.16;5055072;28;20198;-74
2023/05/11 03:44:46;;;;;;;8.10;6.57;;;;;;;8.68;73.95;100835.47;5034359;28;20276;-74
2023/05/11 03:47:14;;;;;;;7.90;7.03;;;;;;;8.67;74.30;100834.69;5051772;28;21003;-75
2023/05/11 03:49:42;;;;;;;7.40;6.70;;;;;;;8.66;74.42;100840.25;5037088;28;20563;-75
2023/05/11 03:52:08;;;;;;;7.20;6.50;;;;;;;8.65;73.86;100839.47;5060078;28;20217;-75
2023/05/11 03:54:36;;;;;;;7.20;6.53;;;;;;;8.63;74.00;100839.03;5035132;28;20252;-75
2023/05/11 03:57:02;;;;;;;8.30;6.83;;;;;;;8.63;73.91;100839.03;5034889;28;20229;-75
2023/05/11 03:59:28;;;;;;;7.37;6.50;;;;;;;8.63;74.78;100839.03;5052278;28;20452;-75
2023/05/11 04:01:57;;;;;;;7.60;6.80;;;;;;;8.64;73.14;100842.44;5036012;28;20199;-76
2023/05/11 04:04:29;;;;;;;7.83;6.77;;;;;;;8.64;73.21;100834.53;5041690;28;20230;-75
2023/05/11 04:06:57;;;;;;;7.80;7.00;;;;;;;8.65;73.09;100833.47;5052421;28;20305;-75
2023/05/11 04:09:24;;;;;;;8.17;7.37;;;;;;;8.69;72.65;100837.03;5040291;28;20576;-75
2023/05/11 04:11:51;;;;;;;8.77;7.10;;;;;;;8.74;73.80;100839.50;5036823;28;20271;-75
2023/05/11 04:14:17;;;;;;;8.43;7.63;;;;;;;8.80;73.29;100833.78;5051857;28;20229;-76
2023/05/11 04:16:44;;;;;;;7.90;7.10;;;;;;;8.88;73.59;100840.16;5035580;28;20241;-76
2023/05/11 04:19:11;;;;;;;7.97;7.10;;;;;;;8.96;72.14;100834.13;5050027;28;20566;-76
2023/05/11 04:21:38;;;;;;;8.27;7.37;;;;;;;9.07;72.72;100838.78;5049975;28;20608;-75
2023/05/11 04:24:05;;;;;;;7.80;7.03;;;;;;;9.18;72.08;100839.25;5036738;28;20603;-76
2023/05/11 04:26:31;;;;;;;9.77;7.70;;;;;;;9.31;72.05;100841.00;5056771;28;20425;-75
2023/05/11 04:28:57;;;;;;;13.57;7.50;;;;;;;9.44;72.15;100842.69;5039017;28;20211;-75
2023/05/11 04:31:24;;;;;;;9.13;7.10;;;;;;;9.59;71.72;100845.63;5040136;28;20210;-76
2023/05/11 04:33:50;;;;;;;7.33;6.63;;;;;;;9.73;71.42;100845.44;5032428;28;20207;-75
2023/05/11 04:36:19;;;;;;;6.70;5.90;;;;;;;9.85;71.02;100848.22;5054744;28;20760;-75
2023/05/11 04:38:45;;;;;;;7.27;6.50;;;;;;;10.00;71.36;100851.09;5034535;28;20210;-76
2023/05/11 04:41:12;;;;;;;9.30;6.87;;;;;;;10.14;71.17;100854.38;5052839;28;20582;-76
2023/05/11 04:43:39;;;;;;;7.23;6.53;;;;;;;10.25;70.52;100860.09;5043451;28;20230;-75
2023/05/11 04:46:08;;;;;;;9.60;7.03;;;;;;;10.40;71.15;100852.41;5053030;28;20212;-75
2023/05/11 04:48:34;;;;;;;8.37;6.10;;;;;;;10.51;70.39;100850.97;5040224;28;20924;-76
2023/05/11 04:51:04;;;;;;;6.57;5.97;;;;;;;10.62;70.19;100849.50;5043023;28;20215;-75
2023/05/11 04:53:33;;;;;;;6.63;6.03;;;;;;;10.74;70.75;100862.81;5038275;28;20207;-76
2023/05/11 04:55:59;;;;;;;7.10;6.40;;;;;;;10.86;69.90;100864.75;5054133;28;20210;-75
2023/05/11 04:58:26;;;;;;;7.57;5.90;;;;;;;10.96;69.41;100864.38;5037985;28;20586;-76
2023/05/11 05:00:52;;;;;;;7.53;6.20;;;;;;;11.06;68.99;100867.44;5052425;28;20619;-75
2023/05/11 05:03:19;;;;;;;7.23;6.37;;;;;;;11.17;69.48;100863.31;5048844;28;20231;-76
2023/05/11 05:05:45;;;;;;;7.07;5.60;;;;;;;11.26;69.09;100864.03;5026611;28;20649;-76
2023/05/11 05:08:11;;;;;;;6.63;5.40;;;;;;;11.35;68.48;100872.69;5049843;28;20304;-76
2023/05/11 05:10:39;;;;;;;6.97;5.20;;;;;;;11.45;67.66;100869.63;5053376;28;20230;-75
2023/05/11 05:13:05;;;;;;;5.97;5.37;;;;;;;11.54;67.30;100872.22;5052165;28;21791;-76
2023/05/11 05:15:32;;;;;;;6.33;5.13;;;;;;;11.64;67.42;100874.50;5037558;28;21214;-75
2023/05/11 05:17:58;;;;;;;6.20;5.60;;;;;;;11.73;68.07;100869.88;5034799;28;20246;-76
2023/05/11 05:20:25;;;;;;;7.10;5.93;;;;;;;11.83;67.87;100875.56;5039000;28;20206;-75
2023/05/11 05:22:54;;;;;;;8.57;5.70;;;;;;;11.94;67.72;100873.25;5057559;28;20230;-76
2023/05/11 05:25:20;;;;;;;9.57;5.23;;;;;;;12.05;66.94;100879.69;5036704;28;20258;-76
2023/05/11 05:27:48;;;;;;;7.30;5.13;;;;;;;12.14;66.88;100881.16;5059483;28;20231;-76
2023/05/11 05:30:18;;;;;;;7.00;5.23;;;;;;;12.25;66.27;100882.28;5039197;28;20209;-76
2023/05/11 05:32:44;;;;;;;8.33;5.00;;;;;;;12.34;66.38;100888.25;5043244;28;20548;-76
2023/05/11 05:35:11;;;;;;;6.43;5.33;;;;;;;12.45;66.41;100883.28;5058723;28;20595;-75
2023/05/11 05:37:37;;;;;;;6.40;5.13;;;;;;;12.56;65.43;100887.03;5040178;28;20216;-76
2023/05/11 05:40:05;;;;;;;9.73;5.10;;;;;;;12.67;65.60;100891.56;5042694;28;20197;-76
2023/05/11 05:42:35;;;;;;;7.43;5.07;;;;;;;12.77;65.29;100885.06;5037167;28;20205;-76
2023/05/11 05:45:03;;;;;;;5.10;4.60;;;;;;;12.88;65.50;100886.19;5056257;28;20220;-76
2023/05/11 05:47:30;;;;;;;5.07;4.63;;;;;;;12.97;65.08;100889.50;5056228;28;20232;-76
2023/05/11 05:49:56;;;;;;;6.53;4.77;;;;;;;13.08;65.04;100893.22;5038770;28;20217;-76
2023/05/11 05:52:23;;;;;;;7.97;4.77;;;;;;;13.16;64.74;100887.81;5035310;28;20628;-75
2023/05/11 05:54:49;;;;;;;6.13;4.43;;;;;;;13.28;64.29;100897.63;5027251;28;20829;-75
2023/05/11 05:57:16;;;;;;;5.47;4.67;;;;;;;13.38;63.87;100897.16;5033204;28;20262;-76
2023/05/11 05:59:44;;;;;;;5.87;4.00;;;;;;;13.49;63.91;100903.53;5035957;28;20209;-76
2023/05/11 06:02:12;;;;;;;5.10;4.30;;;;;;;13.59;63.72;100895.09;5054088;28;20688;-76
2023/05/11 06:04:40;;;;;;;4.47;4.00;;;;;;;13.70;63.41;100896.16;5054057;28;20232;-76
2023/05/11 06:07:07;;;;;;;4.57;4.07;;;;;;;13.82;62.78;100898.78;5036136;28;20683;-77
2023/05/11 06:09:34;;;;;;;6.50;4.23;;;;;;;13.91;63.00;100904.69;5041706;28;20232;-76
2023/05/11 06:12:00;;;;;;;4.27;3.50;;;;;;;14.04;62.60;100900.88;5052078;28;20907;-77
2023/05/11 06:14:26;;;;;;;5.50;3.40;;;;;;;14.15;62.83;100901.91;5033011;28;20228;-76
2023/05/11 06:16:53;;;;;;;5.93;3.80;;;;;;;14.27;61.96;100905.31;5033718;28;20319;-77
2023/05/11 06:19:22;;;;;;;5.07;3.63;;;;;;;14.41;61.64;100904.88;5054458;28;20861;-76
2023/05/11 06:21:49;;;;;;;6.33;3.83;;;;;;;14.52;61.68;100908.56;5054902;28;20202;-76
2023/05/11 06:24:16;;;;;;;4.77;3.63;;;;;;;14.64;61.77;100908.50;5030831;28;20313;-76
2023/05/11 06:26:44;;;;;;;4.97;3.57;;;;;;;14.75;61.51;100904.19;5046096;28;20623;-76
2023/05/11 06:29:10;;;;;;;5.13;3.10;;;;;;;14.88;59.90;100909.06;5050262;28;20212;-76
2023/05/11 06:31:38;;;;;;;5.83;3.27;;;;;;;15.02;60.10;100905.94;5057639;28;20569;-75
2023/05/11 06:34:05;;;;;;;6.87;3.20;;;;;;;15.14;59.86;100911.13;5036068;28;20195;-76
2023/05/11 06:36:34;;;;;;;7.23;3.30;;;;;;;15.26;59.90;100903.81;5039062;28;20227;-76
2023/05/11 06:39:01;;;;;;;4.60;3.40;;;;;;;15.37;59.12;100906.75;5033934;28;20236;-77
2023/05/11 06:41:27;;;;;;;8.23;3.27;;;;;;;15.51;58.09;100909.66;5039842;28;20282;-76
2023/05/11 06:43:53;;;;;;;4.43;2.90;;;;;;;15.62;59.05;100897.38;5056119;28;20230;-77
2023/05/11 06:46:26;;;;;;;4.53;2.67;;;;;;;15.77;56.42;100901.81;5039023;28;20240;-76
2023/05/11 06:48:53;;;;;;;4.37;2.90;;;;;;;15.88;56.45;100903.56;5054679;28;20235;-76
2023/05/11 06:51:20;;;;;;;3.83;2.73;;;;;;;15.99;55.06;100898.44;5054782;28;20599;-76
2023/05/11 06:53:48;;;;;;;3.33;2.53;;;;;;;16.10;55.29;100908.16;5052833;28;20737;-77
2023/05/11 06:56:14;;;;;;;3.67;2.60;;;;;;;16.18;53.89;100901.03;5035623;28;20203;-76
2023/05/11 06:58:41;;;;;;;3.50;2.73;;;;;;;16.29;54.86;100904.66;5060867;28;20335;-75
2023/05/11 07:01:07;;;;;;;4.93;2.77;;;;;;;16.37;54.96;100904.44;5054570;28;20210;-76
2023/05/11 07:03:34;;;;;;;4.00;2.73;;;;;;;16.46;54.41;100899.66;5049974;28;20208;-76
2023/05/11 07:06:00;;;;;;;3.03;2.73;;;;;;;16.58;55.00;100904.03;5046676;28;20209;-76
2023/05/11 07:08:26;;;;;;;3.70;2.77;;;;;;;16.66;55.34;100906.47;5047607;28;20225;-76
2023/05/11 07:10:54;;;;;;;4.37;2.30;;;;;;;16.77;54.86;100906.63;5051351;28;20200;-76
2023/05/11 07:13:21;;;;;;;4.57;2.53;;;;;;;16.85;54.68;100909.03;5038273;28;20218;-76
2023/05/11 07:15:48;;;;;;;7.70;2.50;;;;;;;16.95;53.79;100908.44;5054090;28;20203;-76
2023/05/11 07:18:14;;;;;;;2.83;2.37;;;;;;;17.07;52.12;100910.13;5055008;28;20256;-75
2023/05/11 07:20:41;;;;;;;4.20;2.40;;;;;;;17.16;53.22;100911.41;5053387;28;20217;-75
2023/05/11 07:23:07;;;;;;;2.60;2.40;;;;;;;17.27;52.42;100919.53;5057266;28;20583;-76
2023/05/11 07:25:34;;;;;;;3.73;2.10;;;;;;;17.34;51.06;100908.97;5056490;28;20221;-76
2023/05/11 07:28:02;;;;;;;3.17;2.30;;;;;;;17.43;51.52;100902.22;5053824;28;20222;-75
2023/05/11 07:30:28;;;;;;;2.83;2.40;;;;;;;17.52;51.94;100904.63;5028379;28;20209;-76
2023/05/11 07:32:55;;;;;;;3.63;2.90;;;;;;;17.60;51.96;100908.94;5037196;28;20463;-76
2023/05/11 07:35:21;;;;;;;3.03;2.73;;;;;;;17.69;52.33;100909.41;5056292;28;20732;-76
2023/05/11 07:37:47;;;;;;;3.57;2.27;;;;;;;17.75;51.10;100919.41;5055948;28;20229;-76
2023/05/11 07:40:14;;;;;;;4.40;2.80;;;;;;;17.86;50.94;100912.25;5053369;28;20209;-76
2023/05/11 07:42:40;;;;;;;3.77;2.20;;;;;;;17.94;50.10;100913.88;5045036;28;20259;-75
2023/05/11 07:45:09;;;;;;;3.17;2.30;;;;;;;18.02;49.78;100923.53;5046583;28;20233;-76
2023/05/11 07:47:35;;;;;;;2.90;2.60;;;;;;;18.09;49.28;100922.81;5052679;28;20354;-76
2023/05/11 07:50:02;;;;;;;5.83;2.67;;;;;;;18.16;50.58;100923.66;5054314;28;20217;-75
2023/05/11 07:52:28;;;;;;;2.43;2.17;;;;;;;18.23;50.28;100909.59;5056242;28;20204;-75
2023/05/11 07:54:55;;;;;;;4.63;2.40;;;;;;;18.32;49.97;100923.47;5048725;28;20198;-76
2023/05/11 07:57:21;;;;;;;2.83;2.50;;;;;;;18.40;49.68;100920.47;5052326;28;20230;-75
2023/05/11 07:59:47;;;;;;;2.77;2.30;;;;;;;18.48;49.84;100915.94;5056288;28;20207;-76
2023/05/11 08:02:15;;;;;;;3.50;2.67;;;;;;;18.54;49.15;100925.94;5054507;28;20203;-76
2023/05/11 08:04:42;;;;;;;4.53;2.70;;;;;;;18.61;50.14;100925.22;5060015;28;20231;-76
2023/05/11 08:07:08;;;;;;;5.10;2.83;;;;;;;18.65;50.17;100921.44;5057128;28;20724;-76
2023/05/11 08:09:35;;;;;;;3.93;2.60;;;;;;;18.72;49.92;100924.16;5057635;28;20308;-76
2023/05/11 08:12:02;;;;;;;3.00;2.50;;;;;;;18.80;48.06;100925.75;5057474;28;21419;-75
2023/05/11 08:14:29;;;;;;;5.73;2.70;;;;;;;18.84;48.74;100923.84;5062154;28;20201;-76
2023/05/11 08:16:55;;;;;;;4.23;2.40;;;;;;;18.91;49.66;100925.81;5059130;28;20229;-75
2023/05/11 08:19:23;;;;;;;4.30;2.60;;;;;;;18.98;48.50;100918.59;5063498;28;20198;-76
2023/05/11 08:21:49;;;;;;;2.73;2.53;;;;;;;19.04;48.33;100919.03;5061311;28;20224;-76
2023/05/11 08:24:16;;;;;;;4.03;2.30;;;;;;;19.09;48.08;100924.78;5055277;28;20226;-75
2023/05/11 08:26:43;;;;;;;4.73;2.40;;;;;;;19.13;47.64;100917.56;5040121;28;20229;-76
2023/05/11 08:29:11;;;;;;;5.47;2.57;;;;;;;19.20;47.98;100925.63;5059882;28;20257;-77
2023/05/11 08:31:37;;;;;;;5.03;2.40;;;;;;;19.26;47.90;100926.84;5058931;28;20310;-76
2023/05/11 08:34:04;;;;;;;6.33;2.50;;;;;;;19.33;48.10;100926.09;5060803;28;20557;-76
2023/05/11 08:36:32;;;;;;;4.33;2.53;;;;;;;19.39;46.72;100935.31;5055436;28;20219;-76
2023/05/11 08:38:58;;;;;;;3.10;2.20;;;;;;;19.45;48.04;100926.53;5056292;28;20210;-75
2023/05/11 08:41:25;;;;;;;4.97;2.30;;;;;;;19.51;47.90;100933.06;5061521;28;20222;-76
2023/05/11 08:43:52;;;;;;;5.63;2.23;;;;;;;19.57;47.13;100934.25;5059366;28;20223;-75
2023/05/11 08:46:25;;;;;;;3.20;2.20;;;;;;;19.64;46.00;100936.19;5039104;28;20807;-75
2023/05/11 08:48:52;;;;;;;2.40;2.00;;;;;;;19.68;45.61;100931.59;5056086;28;20217;-75
2023/05/11 08:51:19;;;;;;;3.47;2.20;;;;;;;19.73;45.15;100932.03;5058597;28;20615;-75
2023/05/11 08:53:46;;;;;;;4.53;2.30;;;;;;;19.78;46.49;100928.97;5059221;28;20206;-76
2023/05/11 08:56:13;;;;;;;4.13;2.50;;;;;;;19.85;47.02;100925.53;5056417;28;20724;-76
2023/05/11 08:58:40;;;;;;;4.40;2.67;;;;;;;19.89;46.14;100927.09;5064000;28;20296;-76
2023/05/11 09:01:07;;;;;;;3.23;2.20;;;;;;;19.95;46.21;100924.78;5061473;28;20206;-75
2023/05/11 09:03:35;;;;;;;3.77;2.20;;;;;;;20.02;45.21;100930.19;5055237;28;20461;-76
2023/05/11 09:06:05;;;;;;;4.53;2.40;;;;;;;20.07;45.21;100929.84;5056221;28;20364;-76
2023/05/11 09:08:34;;;;;;;5.30;2.30;;;;;;;20.12;45.31;100922.19;5060278;28;20287;-76
2023/05/11 09:11:03;;;;;;;3.20;2.20;;;;;;;20.17;44.55;100911.06;5063102;28;20202;-75
2023/05/11 09:13:30;;;;;;;3.40;2.00;;;;;;;20.23;45.89;100922.22;5057889;28;20206;-76
2023/05/11 09:15:57;;;;;;;2.60;2.00;;;;;;;20.29;43.74;100913.38;5059416;28;20893;-76
2023/05/11 09:18:23;;;;;;;4.40;2.10;;;;;;;20.34;44.70;100918.38;5057063;28;20260;-76
2023/05/11 09:20:50;;;;;;;4.33;2.13;;;;;;;20.40;44.54;100926.81;5059099;28;20293;-76
2023/05/11 09:23:16;;;;;;;2.50;2.30;;;;;;;20.44;43.93;100922.97;5063782;28;20201;-76
2023/05/11 09:25:43;;;;;;;4.87;2.10;;;;;;;20.49;42.48;100919.16;5060882;28;20245;-75
2023/05/11 09:28:15;;;;;;;3.80;2.40;;;;;;;20.53;43.19;100912.63;5056639;28;20221;-76
2023/05/11 09:30:42;;;;;;;8.43;2.40;;;;;;;20.57;44.07;100918.78;5059591;28;20210;-75
2023/05/11 09:33:09;;;;;;;2.77;2.00;;;;;;;20.65;43.33;100911.47;5059243;28;20575;-75
2023/05/11 09:35:35;;;;;;;3.73;1.93;;;;;;;20.73;42.88;100913.00;5062093;28;20202;-75
2023/05/11 09:38:04;;;;;;;2.43;2.10;;;;;;;20.82;42.88;100919.53;5060765;28;20758;-76
2023/05/11 09:40:32;;;;;;;2.30;2.10;;;;;;;20.91;42.02;100924.53;5059667;28;20202;-76
2023/05/11 09:42:59;;;;;;;2.17;1.90;;;;;;;20.98;42.67;100921.81;5056933;28;20210;-73
2023/05/11 09:45:38;;;;;;;4.83;2.30;;;;;;;21.10;42.37;100919.47;5054222;28;20696;-73
2023/05/11 09:48:05;;;;;;;2.57;2.03;;;;;;;21.22;40.31;100919.06;5056390;28;20928;-76
2023/05/11 09:50:32;;;;;;;3.20;1.97;;;;;;;21.21;40.45;100920.22;5056678;28;20272;-77
2023/05/11 09:52:58;;;;;;;3.57;2.00;;;;;;;21.20;41.65;100916.00;5057260;28;20983;-76
2023/05/11 09:55:25;;;;;;;2.20;1.60;;;;;;;21.24;39.03;100921.38;5052800;28;20202;-76
2023/05/11 09:57:56;;;;;;;4.10;2.13;;;;;;;21.32;39.73;100920.19;5054586;28;20244;-75
2023/05/11 10:00:25;;;;;;;2.93;1.60;;;;;;;21.31;39.52;100919.44;5052549;28;20252;-73
2023/05/11 10:03:04;;;;;;;3.07;1.90;;;;;;;21.32;41.18;100914.81;5055015;28;20878;-73
2023/05/11 10:05:31;;;;;;;1.73;1.63;;;;;;;21.44;40.93;100901.72;5041912;28;20271;-74
2023/05/11 10:07:59;;;;;;;2.73;1.87;;;;;;;21.60;39.83;100903.94;5057563;28;20221;-74
2023/05/11 10:10:28;;;;;;;3.20;1.67;;;;;;;21.72;39.96;100907.00;5043696;28;20338;-74
2023/05/11 10:12:55;;;;;;;1.73;1.60;;;;;;;21.78;39.93;100908.09;5050210;28;20206;-73
2023/05/11 10:15:25;;;;;;;2.27;1.50;;;;;;;21.90;37.90;100899.59;5057288;28;20206;-74
2023/05/11 10:17:53;;;;;;;1.80;1.60;;;;;;;22.06;36.95;100897.19;5051426;28;20219;-73
2023/05/11 10:20:21;;;;;;;5.43;1.60;;;;;;;22.20;37.61;100902.47;5052221;28;20225;-73
2023/05/11 10:22:47;;;;;;;2.90;1.70;;;;;;;22.28;37.00;100897.78;5056308;28;20218;-74
2023/05/11 10:25:15;;;;;;;7.38;1.88;;;;;;;22.28;36.37;100900.47;5051223;28;20219;-76
2023/05/11 10:27:42;;;;;;;3.72;1.83;;;;;;;22.30;36.60;100896.22;5051555;28;20585;-76
2023/05/11 10:30:10;;;;;;;1.88;1.50;;;;;;;22.30;36.08;100898.91;5054382;28;20210;-76
2023/05/11 10:32:37;;;;;;;2.05;1.77;;;;;;;22.30;37.42;100898.91;5054622;28;20222;-74
2023/05/11 10:35:06;;;;;;;2.75;1.40;;;;;;;22.27;35.99;100882.81;5054074;28;20731;-74
2023/05/11 10:37:35;;;;;;;4.05;1.60;;;;;;;22.26;35.24;100886.66;5056467;28;20359;-73
2023/05/11 10:40:03;;;;;;;3.80;1.70;;;;;;;22.29;37.95;100896.63;5054579;28;20275;-74
2023/05/11 10:42:45;;;;;;;1.98;1.50;;;;;;;22.27;38.15;100896.25;5057656;28;20669;-74
2023/05/11 10:45:20;;;;;;;1.90;1.70;;;;;;;22.25;37.50;100887.84;5054184;28;20226;-73
2023/05/11 10:48:24;;;;;;;3.50;2.00;;;;;;;22.17;35.35;100897.09;5051005;28;20886;-72
2023/05/11 10:51:00;;;;;;;1.80;1.63;;;;;;;22.11;35.96;100879.88;5052476;28;20694;-73
2023/05/11 10:53:45;;;;;;;3.28;1.77;;;;;;;22.10;37.32;100891.78;5050830;28;20210;-73
2023/05/11 10:56:35;;;;;;;1.70;1.60;;;;;;;22.11;35.94;100880.63;5051653;28;20228;-72
2023/05/11 10:59:40;;;;;;;1.65;1.35;;;;;;;22.19;35.57;100884.03;5050942;28;20225;-76
2023/05/11 11:02:08;;;;;;;1.77;1.40;;;;;;;22.27;36.46;100888.97;5050244;28;20478;-76
2023/05/11 11:04:42;;;;;;;3.88;1.65;;;;;;;22.34;36.78;100893.50;5032181;28;20958;-76
2023/05/11 11:07:10;;;;;;;2.15;1.58;;;;;;;22.38;35.05;100895.03;5054695;28;20218;-76
2023/05/11 11:09:52;;;;;;;1.70;1.60;;;;;;;22.44;35.01;100887.31;5052796;28;20473;-76
2023/05/11 11:12:19;;;;;;;4.82;2.10;;;;;;;22.49;36.15;100894.94;5055136;28;20210;-76
2023/05/11 11:14:59;;;;;;;2.50;1.60;;;;;;;22.53;34.80;100885.69;5057683;28;20700;-75
2023/05/11 11:17:30;;;;;;;2.03;1.60;;;;;;;22.58;35.18;100892.56;5056912;28;20230;-76
2023/05/11 11:19:57;;;;;;;2.00;1.50;;;;;;;22.61;35.87;100887.16;5055928;28;20692;-76
2023/05/11 11:22:43;;;;;;;4.70;2.08;;;;;;;22.69;35.04;100895.94;5053740;28;20210;-76
2023/05/11 11:25:11;;;;;;;10.75;2.50;;;;;;;22.77;35.71;100895.47;5052212;28;20214;-76
2023/05/11 11:27:58;;;;;;;6.97;1.95;;;;;;;22.77;35.60;100906.22;5053974;28;20227;-75
2023/05/11 11:30:27;;;;;;;4.35;2.00;;;;;;;22.74;35.76;100898.97;5056305;28;20214;-76
2023/05/11 11:32:55;;;;;;;2.63;1.90;;;;;;;22.72;35.48;100905.91;5061512;28;20885;-75
2023/05/11 11:35:47;;;;;;;3.72;1.48;;;;;;;22.75;35.07;100910.47;5049538;28;20202;-76
2023/05/11 11:38:16;;;;;;;4.45;2.00;;;;;;;22.73;35.37;100904.75;5052529;28;20218;-74
2023/05/11 11:40:46;;;;;;;7.97;1.75;;;;;;;22.66;33.85;100908.25;5053463;28;20565;-73